sensor_id;sensor_type;location;lat;lon;timestamp;temperature;humidity
26270;DHT22;15937;50.612;6.656;2022-11-20T04:22:02;4.10;99.90
26270;DHT22;15937;50.612;6.656;2022-11-20T04:26:07;4.10;99.90
26270;DHT22;15937;50.612;6.656;2022-11-20T04:30:10;4.00;99.90
26270;DHT22;15937;50.612;6.656;2022-11-20T04:34:11;4.10;99.90
26270;DHT22;15937;50.612;6.656;2022-11-20T04:38:14;4.10;99.90
26270;DHT22;15937;50.612;6.656;2022-11-20T04:42:15;4.20;99.90
26270;DHT22;15937;50.612;6.656;2022-11-20T04:46:33;4.20;99.90
26270;DHT22;15937;50.612;6.656;2022-11-20T04:50:39;4.10;99.90
26270;DHT22;15937;50.612;6.656;2022-11-20T04:54:41;4.20;99.90
26270;DHT22;15937;50.612;6.656;2022-11-20T04:58:42;4.20;99.90
26270;DHT22;15937;50.612;6.656;2022-11-20T05:02:44;4.00;99.90
26270;DHT22;15937;50.612;6.656;2022-11-20T05:06:45;3.70;99.90
26270;DHT22;15937;50.612;6.656;2022-11-20T05:10:47;3.60;99.90
26270;DHT22;15937;50.612;6.656;2022-11-20T05:14:49;3.60;99.90
26270;DHT22;15937;50.612;6.656;2022-11-20T05:18:51;3.70;99.90
26270;DHT22;15937;50.612;6.656;2022-11-20T05:22:56;3.90;99.90
26270;DHT22;15937;50.612;6.656;2022-11-20T05:26:57;3.70;99.90
26270;DHT22;15937;50.612;6.656;2022-11-20T05:31:12;3.70;99.90
26270;DHT22;15937;50.612;6.656;2022-11-20T05:35:14;3.60;99.90
26270;DHT22;15937;50.612;6.656;2022-11-20T05:39:16;3.40;99.90
26270;DHT22;15937;50.612;6.656;2022-11-20T05:43:17;3.40;99.90
26270;DHT22;15937;50.612;6.656;2022-11-20T05:47:19;3.40;99.90
26270;DHT22;15937;50.612;6.656;2022-11-20T05:51:21;3.60;99.90
26270;DHT22;15937;50.612;6.656;2022-11-20T05:55:23;3.50;99.90
26270;DHT22;15937;50.612;6.656;2022-11-20T05:59:24;3.50;99.90
26270;DHT22;15937;50.612;6.656;2022-11-20T06:03:26;3.70;99.90
26270;DHT22;15937;50.612;6.656;2022-11-20T06:07:28;3.60;99.90
26270;DHT22;15937;50.612;6.656;2022-11-20T06:11:31;3.60;99.90
26270;DHT22;15937;50.612;6.656;2022-11-20T06:15:32;3.60;99.90
26270;DHT22;15937;50.612;6.656;2022-11-20T06:19:34;3.60;99.90
26270;DHT22;15937;50.612;6.656;2022-11-20T06:23:36;3.60;99.90
26270;DHT22;15937;50.612;6.656;2022-11-20T06:27:38;3.60;99.90
26270;DHT22;15937;50.612;6.656;2022-11-20T06:31:40;3.80;99.90
26270;DHT22;15937;50.612;6.656;2022-11-20T06:35:43;3.60;99.90
26270;DHT22;15937;50.612;6.656;2022-11-20T06:39:45;3.60;99.90
26270;DHT22;15937;50.612;6.656;2022-11-20T06:43:48;3.40;99.90
26270;DHT22;15937;50.612;6.656;2022-11-20T06:47:50;3.50;99.90
26270;DHT22;15937;50.612;6.656;2022-11-20T06:51:54;3.40;99.90
26270;DHT22;15937;50.612;6.656;2022-11-20T06:55:56;3.40;99.90
26270;DHT22;15937;50.612;6.656;2022-11-20T07:00:01;3.40;99.90
26270;DHT22;15937;50.612;6.656;2022-11-20T07:04:08;3.30;99.90
26270;DHT22;15937;50.612;6.656;2022-11-20T07:08:10;3.30;99.90
26270;DHT22;15937;50.612;6.656;2022-11-20T07:12:11;3.40;99.90
26270;DHT22;15937;50.612;6.656;2022-11-20T07:16:13;3.30;99.90
26270;DHT22;15937;50.612;6.656;2022-11-20T07:20:15;3.40;99.90
26270;DHT22;15937;50.612;6.656;2022-11-20T07:24:19;3.40;99.90
26270;DHT22;15937;50.612;6.656;2022-11-20T07:28:21;3.60;99.90
26270;DHT22;15937;50.612;6.656;2022-11-20T07:32:23;3.50;99.90
26270;DHT22;15937;50.612;6.656;2022-11-20T07:36:25;3.50;99.90
26270;DHT22;15937;50.612;6.656;2022-11-20T07:40:30;3.60;99.90
26270;DHT22;15937;50.612;6.656;2022-11-20T07:44:33;3.40;99.90
26270;DHT22;15937;50.612;6.656;2022-11-20T07:48:36;3.50;99.90
26270;DHT22;15937;50.612;6.656;2022-11-20T07:52:47;3.50;99.90
26270;DHT22;15937;50.612;6.656;2022-11-20T07:56:55;3.50;99.90
26270;DHT22;15937;50.612;6.656;2022-11-20T08:01:04;3.80;99.90
26270;DHT22;15937;50.612;6.656;2022-11-20T08:05:12;3.60;99.90
26270;DHT22;15937;50.612;6.656;2022-11-20T08:09:20;3.70;99.90
26270;DHT22;15937;50.612;6.656;2022-11-20T08:13:27;3.70;99.90
26270;DHT22;15937;50.612;6.656;2022-11-20T08:17:49;3.80;99.90
26270;DHT22;15937;50.612;6.656;2022-11-20T08:22:13;4.00;99.90
26270;DHT22;15937;50.612;6.656;2022-11-20T08:26:20;4.00;99.90
26270;DHT22;15937;50.612;6.656;2022-11-20T08:30:26;4.00;99.90
26270;DHT22;15937;50.612;6.656;2022-11-20T08:34:28;4.10;99.90
26270;DHT22;15937;50.612;6.656;2022-11-20T08:38:31;4.10;99.90
26270;DHT22;15937;50.612;6.656;2022-11-20T08:42:35;4.10;99.90
26270;DHT22;15937;50.612;6.656;2022-11-20T08:46:40;4.10;99.90
26270;DHT22;15937;50.612;6.656;2022-11-20T08:50:47;4.00;99.90
26270;DHT22;15937;50.612;6.656;2022-11-20T08:54:49;4.30;99.90
26270;DHT22;15937;50.612;6.656;2022-11-20T08:58:51;4.20;99.90
26270;DHT22;15937;50.612;6.656;2022-11-20T09:03:14;4.40;99.90
26270;DHT22;15937;50.612;6.656;2022-11-20T09:07:16;4.40;99.90
26270;DHT22;15937;50.612;6.656;2022-11-20T09:11:18;4.50;99.90
26270;DHT22;15937;50.612;6.656;2022-11-20T09:15:20;4.60;99.90
26270;DHT22;15937;50.612;6.656;2022-11-20T09:19:24;4.60;99.90
26270;DHT22;15937;50.612;6.656;2022-11-20T09:23:36;4.70;99.90
26270;DHT22;15937;50.612;6.656;2022-11-20T09:27:39;4.70;99.90
26270;DHT22;15937;50.612;6.656;2022-11-20T09:31:42;4.80;99.90
26270;DHT22;15937;50.612;6.656;2022-11-20T09:35:50;4.90;99.90
26270;DHT22;15937;50.612;6.656;2022-11-20T09:39:55;5.00;99.90
26270;DHT22;15937;50.612;6.656;2022-11-20T09:52:27;5.20;99.90
26270;DHT22;15937;50.612;6.656;2022-11-20T09:56:34;5.10;99.90
26270;DHT22;15937;50.612;6.656;2022-11-20T10:00:39;5.30;99.90
26270;DHT22;15937;50.612;6.656;2022-11-20T10:04:45;5.20;99.90
26270;DHT22;15937;50.612;6.656;2022-11-20T10:29:54;5.50;99.90
26270;DHT22;15937;50.612;6.656;2022-11-20T10:33:59;5.50;99.90
26270;DHT22;15937;50.612;6.656;2022-11-20T10:43:00;5.80;99.90
26270;DHT22;15937;50.612;6.656;2022-11-20T10:47:04;5.90;99.90
26270;DHT22;15937;50.612;6.656;2022-11-20T10:51:59;5.90;99.90
26270;DHT22;15937;50.612;6.656;2022-11-20T10:55:44;5.90;99.90
26270;DHT22;15937;50.612;6.656;2022-11-20T10:59:53;6.00;99.90
26270;DHT22;15937;50.612;6.656;2022-11-20T11:03:57;6.20;99.90
26270;DHT22;15937;50.612;6.656;2022-11-20T11:08:02;6.20;99.90
26270;DHT22;15937;50.612;6.656;2022-11-20T11:12:08;6.40;99.90
26270;DHT22;15937;50.612;6.656;2022-11-20T11:16:20;6.40;99.90
26270;DHT22;15937;50.612;6.656;2022-11-20T11:20:38;6.50;99.90
26270;DHT22;15937;50.612;6.656;2022-11-20T11:24:50;6.60;99.90
26270;DHT22;15937;50.612;6.656;2022-11-20T11:28:53;6.80;99.90
26270;DHT22;15937;50.612;6.656;2022-11-20T11:33:06;6.90;99.90
26270;DHT22;15937;50.612;6.656;2022-11-20T11:37:16;7.10;99.90
26270;DHT22;15937;50.612;6.656;2022-11-20T11:41:25;7.20;99.90
26270;DHT22;15937;50.612;6.656;2022-11-20T13:06:58;8.10;99.90
26270;DHT22;15937;50.612;6.656;2022-11-20T13:20:45;8.10;99.90
26270;DHT22;15937;50.612;6.656;2022-11-20T13:39:48;8.10;99.90
26270;DHT22;15937;50.612;6.656;2022-11-20T13:45:01;8.10;99.90
26270;DHT22;15937;50.612;6.656;2022-11-20T13:48:46;8.10;99.90
26270;DHT22;15937;50.612;6.656;2022-11-20T14:03:17;8.00;99.90
26270;DHT22;15937;50.612;6.656;2022-11-20T14:07:41;8.00;99.90
26270;DHT22;15937;50.612;6.656;2022-11-20T14:12:14;7.90;99.90
26270;DHT22;15937;50.612;6.656;2022-11-20T14:16:39;7.90;99.90
26270;DHT22;15937;50.612;6.656;2022-11-20T14:30:45;7.80;99.90
26270;DHT22;15937;50.612;6.656;2022-11-20T14:35:26;7.70;99.90
26270;DHT22;15937;50.612;6.656;2022-11-20T14:39:53;7.60;99.90
26270;DHT22;15937;50.612;6.656;2022-11-20T14:44:09;7.40;99.90
26270;DHT22;15937;50.612;6.656;2022-11-20T14:53:33;7.30;99.90
26270;DHT22;15937;50.612;6.656;2022-11-20T14:57:55;7.30;99.90
26270;DHT22;15937;50.612;6.656;2022-11-20T15:01:58;7.20;99.90
26270;DHT22;15937;50.612;6.656;2022-11-20T15:06:01;7.10;99.90
26270;DHT22;15937;50.612;6.656;2022-11-20T15:14:05;7.00;99.90
26270;DHT22;15937;50.612;6.656;2022-11-20T15:18:12;7.00;99.90
26270;DHT22;15937;50.612;6.656;2022-11-20T15:22:14;7.00;99.90
26270;DHT22;15937;50.612;6.656;2022-11-20T15:26:20;6.90;99.90
26270;DHT22;15937;50.612;6.656;2022-11-20T15:30:23;6.90;99.90
26270;DHT22;15937;50.612;6.656;2022-11-20T15:34:26;6.90;99.90
26270;DHT22;15937;50.612;6.656;2022-11-20T15:38:28;6.90;99.90
26270;DHT22;15937;50.612;6.656;2022-11-20T15:42:29;6.80;99.90
26270;DHT22;15937;50.612;6.656;2022-11-20T15:46:32;6.70;99.90
26270;DHT22;15937;50.612;6.656;2022-11-20T15:50:58;6.70;99.90
26270;DHT22;15937;50.612;6.656;2022-11-20T15:55:01;6.80;99.90
26270;DHT22;15937;50.612;6.656;2022-11-20T15:59:10;6.70;99.90
26270;DHT22;15937;50.612;6.656;2022-11-20T16:03:12;6.70;99.90
26270;DHT22;15937;50.612;6.656;2022-11-20T16:07:14;6.70;99.90
26270;DHT22;15937;50.612;6.656;2022-11-20T16:11:16;6.60;99.90
26270;DHT22;15937;50.612;6.656;2022-11-20T16:15:18;6.60;99.90
26270;DHT22;15937;50.612;6.656;2022-11-20T16:19:38;6.50;99.90
26270;DHT22;15937;50.612;6.656;2022-11-20T16:23:40;6.50;99.90
26270;DHT22;15937;50.612;6.656;2022-11-20T16:27:42;6.40;99.90
26270;DHT22;15937;50.612;6.656;2022-11-20T16:31:43;6.40;99.90
26270;DHT22;15937;50.612;6.656;2022-11-20T16:35:45;6.40;99.90
26270;DHT22;15937;50.612;6.656;2022-11-20T16:39:47;6.40;99.90
26270;DHT22;15937;50.612;6.656;2022-11-20T16:43:52;6.40;99.90
26270;DHT22;15937;50.612;6.656;2022-11-20T16:48:08;6.40;99.90
26270;DHT22;15937;50.612;6.656;2022-11-20T16:52:12;6.40;99.90
26270;DHT22;15937;50.612;6.656;2022-11-20T16:56:15;6.40;99.90
26270;DHT22;15937;50.612;6.656;2022-11-20T17:00:17;6.30;99.90
26270;DHT22;15937;50.612;6.656;2022-11-20T17:04:19;6.30;99.90
26270;DHT22;15937;50.612;6.656;2022-11-20T17:08:22;6.40;99.90
26270;DHT22;15937;50.612;6.656;2022-11-20T17:12:23;6.30;99.90
26270;DHT22;15937;50.612;6.656;2022-11-20T17:16:25;6.30;99.90
26270;DHT22;15937;50.612;6.656;2022-11-20T17:20:27;6.40;99.90
26270;DHT22;15937;50.612;6.656;2022-11-20T17:24:28;6.40;99.90
26270;DHT22;15937;50.612;6.656;2022-11-20T17:28:32;6.40;99.90
26270;DHT22;15937;50.612;6.656;2022-11-20T17:32:34;6.40;99.90
26270;DHT22;15937;50.612;6.656;2022-11-20T17:36:36;6.40;99.90
26270;DHT22;15937;50.612;6.656;2022-11-20T17:44:48;6.40;99.90
26270;DHT22;15937;50.612;6.656;2022-11-20T17:48:50;6.50;99.90
26270;DHT22;15937;50.612;6.656;2022-11-20T17:52:51;6.60;99.90
26270;DHT22;15937;50.612;6.656;2022-11-20T17:56:53;6.60;99.90
26270;DHT22;15937;50.612;6.656;2022-11-20T18:01:14;6.60;99.90
26270;DHT22;15937;50.612;6.656;2022-11-20T18:05:15;6.70;99.90
26270;DHT22;15937;50.612;6.656;2022-11-20T18:09:17;6.80;99.90
26270;DHT22;15937;50.612;6.656;2022-11-20T18:13:19;6.90;99.90
26270;DHT22;15937;50.612;6.656;2022-11-20T18:17:20;6.90;99.90
26270;DHT22;15937;50.612;6.656;2022-11-20T18:21:22;7.00;99.90
26270;DHT22;15937;50.612;6.656;2022-11-20T18:25:24;7.00;99.90
26270;DHT22;15937;50.612;6.656;2022-11-20T18:29:26;7.10;99.90
26270;DHT22;15937;50.612;6.656;2022-11-20T18:33:28;7.10;99.90
26270;DHT22;15937;50.612;6.656;2022-11-20T18:37:30;7.10;99.90
26270;DHT22;15937;50.612;6.656;2022-11-20T18:41:32;7.10;99.90
26270;DHT22;15937;50.612;6.656;2022-11-20T18:46:00;7.10;99.90
26270;DHT22;15937;50.612;6.656;2022-11-20T18:50:02;7.20;99.90
26270;DHT22;15937;50.612;6.656;2022-11-20T18:54:04;7.20;99.90
26270;DHT22;15937;50.612;6.656;2022-11-20T18:58:07;7.20;99.90
26270;DHT22;15937;50.612;6.656;2022-11-20T19:02:09;7.20;99.90
26270;DHT22;15937;50.612;6.656;2022-11-20T19:06:12;7.20;99.90
26270;DHT22;15937;50.612;6.656;2022-11-20T19:10:16;7.30;99.90
26270;DHT22;15937;50.612;6.656;2022-11-20T19:14:18;7.30;99.90
26270;DHT22;15937;50.612;6.656;2022-11-20T19:18:21;7.30;99.90
26270;DHT22;15937;50.612;6.656;2022-11-20T19:22:23;7.30;99.90
26270;DHT22;15937;50.612;6.656;2022-11-20T19:26:25;7.30;99.90
26270;DHT22;15937;50.612;6.656;2022-11-20T19:30:27;7.30;99.90
26270;DHT22;15937;50.612;6.656;2022-11-20T19:34:28;7.30;99.90
26270;DHT22;15937;50.612;6.656;2022-11-20T19:38:30;7.30;99.90
26270;DHT22;15937;50.612;6.656;2022-11-20T19:42:32;7.30;99.90
26270;DHT22;15937;50.612;6.656;2022-11-20T19:46:34;7.20;99.90
26270;DHT22;15937;50.612;6.656;2022-11-20T19:50:36;7.20;99.90
26270;DHT22;15937;50.612;6.656;2022-11-20T19:54:38;7.20;99.90
26270;DHT22;15937;50.612;6.656;2022-11-20T19:58:40;7.10;99.90
26270;DHT22;15937;50.612;6.656;2022-11-20T20:02:42;7.20;99.90
26270;DHT22;15937;50.612;6.656;2022-11-20T20:06:44;7.20;99.90
26270;DHT22;15937;50.612;6.656;2022-11-20T20:10:45;7.20;99.90
26270;DHT22;15937;50.612;6.656;2022-11-20T20:14:47;7.20;99.90
26270;DHT22;15937;50.612;6.656;2022-11-20T20:18:52;7.20;99.90
26270;DHT22;15937;50.612;6.656;2022-11-20T20:22:54;7.20;99.90
26270;DHT22;15937;50.612;6.656;2022-11-20T20:26:56;7.20;99.90
26270;DHT22;15937;50.612;6.656;2022-11-20T20:31:09;7.10;99.90
26270;DHT22;15937;50.612;6.656;2022-11-20T20:35:10;7.10;99.90
26270;DHT22;15937;50.612;6.656;2022-11-20T20:39:12;7.00;99.90
26270;DHT22;15937;50.612;6.656;2022-11-20T20:43:14;7.00;99.90
26270;DHT22;15937;50.612;6.656;2022-11-20T20:47:16;7.00;99.90
26270;DHT22;15937;50.612;6.656;2022-11-20T20:51:18;6.80;99.90
26270;DHT22;15937;50.612;6.656;2022-11-20T20:55:20;6.90;99.90
26270;DHT22;15937;50.612;6.656;2022-11-20T20:59:27;6.90;99.90
26270;DHT22;15937;50.612;6.656;2022-11-20T21:03:37;6.90;99.90
26270;DHT22;15937;50.612;6.656;2022-11-20T21:07:39;6.90;99.90
26270;DHT22;15937;50.612;6.656;2022-11-20T21:12:14;6.80;99.90
26270;DHT22;15937;50.612;6.656;2022-11-20T21:16:24;6.70;99.90
26270;DHT22;15937;50.612;6.656;2022-11-20T21:20:29;6.80;99.90
26270;DHT22;15937;50.612;6.656;2022-11-20T21:24:51;6.80;99.90
26270;DHT22;15937;50.612;6.656;2022-11-20T21:28:55;6.70;99.90
26270;DHT22;15937;50.612;6.656;2022-11-20T21:32:58;6.70;99.90
26270;DHT22;15937;50.612;6.656;2022-11-20T21:37:04;6.80;99.90
26270;DHT22;15937;50.612;6.656;2022-11-20T21:41:07;6.70;99.90
26270;DHT22;15937;50.612;6.656;2022-11-20T21:45:10;6.80;99.90
26270;DHT22;15937;50.612;6.656;2022-11-20T21:49:12;6.80;99.90
26270;DHT22;15937;50.612;6.656;2022-11-20T21:53:17;6.90;99.90
26270;DHT22;15937;50.612;6.656;2022-11-20T21:57:18;6.90;99.90
26270;DHT22;15937;50.612;6.656;2022-11-20T22:05:22;6.90;99.90
26270;DHT22;15937;50.612;6.656;2022-11-20T22:09:24;6.80;99.90
26270;DHT22;15937;50.612;6.656;2022-11-20T22:13:25;6.80;99.90
26270;DHT22;15937;50.612;6.656;2022-11-20T22:17:46;6.80;99.90
26270;DHT22;15937;50.612;6.656;2022-11-20T22:22:06;6.80;99.90
26270;DHT22;15937;50.612;6.656;2022-11-20T22:26:09;6.90;99.90
26270;DHT22;15937;50.612;6.656;2022-11-20T22:30:11;6.80;99.90
26270;DHT22;15937;50.612;6.656;2022-11-20T22:34:13;6.80;99.90
26270;DHT22;15937;50.612;6.656;2022-11-20T22:38:15;6.90;99.90
26270;DHT22;15937;50.612;6.656;2022-11-20T22:42:17;6.90;99.90
26270;DHT22;15937;50.612;6.656;2022-11-20T22:46:18;6.90;99.90
26270;DHT22;15937;50.612;6.656;2022-11-20T22:50:20;7.00;99.90
26270;DHT22;15937;50.612;6.656;2022-11-20T22:54:22;7.00;99.90
26270;DHT22;15937;50.612;6.656;2022-11-20T22:58:24;7.10;99.90
26270;DHT22;15937;50.612;6.656;2022-11-20T23:02:27;7.00;99.90
26270;DHT22;15937;50.612;6.656;2022-11-20T23:06:29;7.00;99.90
26270;DHT22;15937;50.612;6.656;2022-11-20T23:10:34;7.00;99.90
26270;DHT22;15937;50.612;6.656;2022-11-20T23:14:36;7.00;99.90
26270;DHT22;15937;50.612;6.656;2022-11-20T23:18:37;7.00;99.90
26270;DHT22;15937;50.612;6.656;2022-11-20T23:22:39;7.00;99.90
26270;DHT22;15937;50.612;6.656;2022-11-20T23:26:41;7.10;99.90
26270;DHT22;15937;50.612;6.656;2022-11-20T23:30:44;7.00;99.90
26270;DHT22;15937;50.612;6.656;2022-11-20T23:34:46;6.90;99.90
26270;DHT22;15937;50.612;6.656;2022-11-20T23:38:48;7.00;99.90
26270;DHT22;15937;50.612;6.656;2022-11-20T23:42:49;6.90;99.90
26270;DHT22;15937;50.612;6.656;2022-11-20T23:47:10;6.90;99.90
26270;DHT22;15937;50.612;6.656;2022-11-20T23:51:12;6.80;99.90
26270;DHT22;15937;50.612;6.656;2022-11-20T23:55:13;6.80;99.90
26270;DHT22;15937;50.612;6.656;2022-11-20T23:59:15;6.80;99.90
